sensor_id;sensor_type;location;lat;lon;timestamp;P1;durP1;ratioP1;P2;durP2;ratioP2
41333;SDS011;27078;46.428;6.256;2024-01-16T00:01:15;2.05;;;1.00;;
41333;SDS011;27078;46.428;6.256;2024-01-16T00:03:41;4.30;;;1.00;;
41333;SDS011;27078;46.428;6.256;2024-01-16T00:06:07;3.28;;;0.90;;
41333;SDS011;27078;46.428;6.256;2024-01-16T00:08:32;2.50;;;0.80;;
41333;SDS011;27078;46.428;6.256;2024-01-16T00:10:58;2.20;;;0.90;;
41333;SDS011;27078;46.428;6.256;2024-01-16T00:13:23;1.85;;;0.82;;
41333;SDS011;27078;46.428;6.256;2024-01-16T00:15:50;2.17;;;0.85;;
41333;SDS011;27078;46.428;6.256;2024-01-16T00:18:15;2.85;;;1.00;;
41333;SDS011;27078;46.428;6.256;2024-01-16T00:20:41;3.90;;;1.00;;
41333;SDS011;27078;46.428;6.256;2024-01-16T00:23:06;1.65;;;0.70;;
41333;SDS011;27078;46.428;6.256;2024-01-16T00:25:32;1.90;;;0.77;;
41333;SDS011;27078;46.428;6.256;2024-01-16T00:27:57;1.83;;;0.73;;
41333;SDS011;27078;46.428;6.256;2024-01-16T00:30:22;1.63;;;0.82;;
41333;SDS011;27078;46.428;6.256;2024-01-16T00:32:48;1.58;;;0.70;;
41333;SDS011;27078;46.428;6.256;2024-01-16T00:35:13;1.70;;;0.88;;
41333;SDS011;27078;46.428;6.256;2024-01-16T00:37:39;1.30;;;0.70;;
41333;SDS011;27078;46.428;6.256;2024-01-16T00:40:05;1.70;;;0.80;;
41333;SDS011;27078;46.428;6.256;2024-01-16T00:42:31;2.15;;;0.90;;
41333;SDS011;27078;46.428;6.256;2024-01-16T00:44:57;2.55;;;0.80;;
41333;SDS011;27078;46.428;6.256;2024-01-16T00:47:22;2.35;;;1.10;;
41333;SDS011;27078;46.428;6.256;2024-01-16T00:49:48;1.95;;;0.90;;
41333;SDS011;27078;46.428;6.256;2024-01-16T00:52:13;2.13;;;0.90;;
41333;SDS011;27078;46.428;6.256;2024-01-16T00:54:38;2.45;;;1.20;;
41333;SDS011;27078;46.428;6.256;2024-01-16T00:57:05;2.75;;;0.82;;
41333;SDS011;27078;46.428;6.256;2024-01-16T00:59:30;1.85;;;0.80;;
41333;SDS011;27078;46.428;6.256;2024-01-16T01:01:55;1.85;;;0.95;;
41333;SDS011;27078;46.428;6.256;2024-01-16T01:04:21;2.05;;;0.90;;
41333;SDS011;27078;46.428;6.256;2024-01-16T01:06:46;2.70;;;0.82;;
41333;SDS011;27078;46.428;6.256;2024-01-16T01:09:12;1.55;;;0.80;;
41333;SDS011;27078;46.428;6.256;2024-01-16T01:11:38;3.22;;;1.05;;
41333;SDS011;27078;46.428;6.256;2024-01-16T01:14:03;2.08;;;1.00;;
41333;SDS011;27078;46.428;6.256;2024-01-16T01:16:29;1.73;;;0.80;;
41333;SDS011;27078;46.428;6.256;2024-01-16T01:18:54;2.20;;;0.95;;
41333;SDS011;27078;46.428;6.256;2024-01-16T01:21:20;2.38;;;0.77;;
41333;SDS011;27078;46.428;6.256;2024-01-16T01:23:45;1.55;;;0.70;;
41333;SDS011;27078;46.428;6.256;2024-01-16T01:26:11;1.77;;;0.80;;
41333;SDS011;27078;46.428;6.256;2024-01-16T01:28:39;1.08;;;0.60;;
41333;SDS011;27078;46.428;6.256;2024-01-16T01:31:05;1.95;;;0.90;;
41333;SDS011;27078;46.428;6.256;2024-01-16T01:33:30;1.30;;;0.60;;
41333;SDS011;27078;46.428;6.256;2024-01-16T01:35:56;1.70;;;0.63;;
41333;SDS011;27078;46.428;6.256;2024-01-16T01:38:21;1.67;;;0.70;;
41333;SDS011;27078;46.428;6.256;2024-01-16T01:40:46;1.40;;;0.65;;
41333;SDS011;27078;46.428;6.256;2024-01-16T01:45:46;2.03;;;0.73;;
41333;SDS011;27078;46.428;6.256;2024-01-16T01:48:21;1.30;;;0.50;;
41333;SDS011;27078;46.428;6.256;2024-01-16T01:50:47;1.67;;;0.80;;
41333;SDS011;27078;46.428;6.256;2024-01-16T01:53:13;1.10;;;0.50;;
41333;SDS011;27078;46.428;6.256;2024-01-16T01:55:38;1.13;;;0.68;;
41333;SDS011;27078;46.428;6.256;2024-01-16T01:58:03;1.52;;;0.50;;
41333;SDS011;27078;46.428;6.256;2024-01-16T02:00:30;1.35;;;0.50;;
41333;SDS011;27078;46.428;6.256;2024-01-16T02:02:56;2.42;;;0.85;;
41333;SDS011;27078;46.428;6.256;2024-01-16T02:05:21;1.88;;;0.60;;
41333;SDS011;27078;46.428;6.256;2024-01-16T02:07:47;1.73;;;0.57;;
41333;SDS011;27078;46.428;6.256;2024-01-16T02:10:12;1.02;;;0.40;;
41333;SDS011;27078;46.428;6.256;2024-01-16T02:12:38;1.73;;;0.80;;
41333;SDS011;27078;46.428;6.256;2024-01-16T02:15:04;1.75;;;0.65;;
41333;SDS011;27078;46.428;6.256;2024-01-16T02:17:30;1.73;;;0.80;;
41333;SDS011;27078;46.428;6.256;2024-01-16T02:19:55;1.70;;;0.60;;
41333;SDS011;27078;46.428;6.256;2024-01-16T02:22:20;1.63;;;0.70;;
41333;SDS011;27078;46.428;6.256;2024-01-16T02:24:53;1.38;;;0.60;;
41333;SDS011;27078;46.428;6.256;2024-01-16T02:27:19;2.28;;;0.80;;
41333;SDS011;27078;46.428;6.256;2024-01-16T02:29:44;1.65;;;0.63;;
41333;SDS011;27078;46.428;6.256;2024-01-16T02:32:11;2.20;;;0.60;;
41333;SDS011;27078;46.428;6.256;2024-01-16T02:34:37;1.27;;;0.52;;
41333;SDS011;27078;46.428;6.256;2024-01-16T02:37:03;1.13;;;0.55;;
41333;SDS011;27078;46.428;6.256;2024-01-16T02:39:29;1.33;;;0.60;;
41333;SDS011;27078;46.428;6.256;2024-01-16T02:41:54;1.00;;;0.57;;
41333;SDS011;27078;46.428;6.256;2024-01-16T02:44:20;1.00;;;0.55;;
41333;SDS011;27078;46.428;6.256;2024-01-16T02:46:45;1.20;;;0.60;;
41333;SDS011;27078;46.428;6.256;2024-01-16T02:49:10;1.38;;;0.60;;
41333;SDS011;27078;46.428;6.256;2024-01-16T02:51:35;1.02;;;0.60;;
41333;SDS011;27078;46.428;6.256;2024-01-16T02:54:01;1.52;;;0.77;;
41333;SDS011;27078;46.428;6.256;2024-01-16T02:56:26;1.27;;;0.60;;
41333;SDS011;27078;46.428;6.256;2024-01-16T02:58:51;0.95;;;0.50;;
41333;SDS011;27078;46.428;6.256;2024-01-16T03:01:17;1.33;;;0.45;;
41333;SDS011;27078;46.428;6.256;2024-01-16T03:03:42;1.48;;;0.75;;
41333;SDS011;27078;46.428;6.256;2024-01-16T03:06:08;1.23;;;0.60;;
41333;SDS011;27078;46.428;6.256;2024-01-16T03:08:33;1.58;;;0.82;;
41333;SDS011;27078;46.428;6.256;2024-01-16T03:10:59;1.75;;;0.80;;
41333;SDS011;27078;46.428;6.256;2024-01-16T03:13:24;2.83;;;0.90;;
41333;SDS011;27078;46.428;6.256;2024-01-16T03:15:49;1.52;;;0.80;;
41333;SDS011;27078;46.428;6.256;2024-01-16T03:18:15;2.05;;;0.90;;
41333;SDS011;27078;46.428;6.256;2024-01-16T03:20:42;2.88;;;0.80;;
41333;SDS011;27078;46.428;6.256;2024-01-16T03:23:07;1.85;;;0.80;;
41333;SDS011;27078;46.428;6.256;2024-01-16T03:25:33;1.60;;;0.60;;
41333;SDS011;27078;46.428;6.256;2024-01-16T03:28:03;1.33;;;0.68;;
41333;SDS011;27078;46.428;6.256;2024-01-16T03:30:29;1.75;;;0.90;;
41333;SDS011;27078;46.428;6.256;2024-01-16T03:32:54;1.63;;;0.75;;
41333;SDS011;27078;46.428;6.256;2024-01-16T03:35:20;1.58;;;0.70;;
41333;SDS011;27078;46.428;6.256;2024-01-16T03:37:45;2.13;;;0.85;;
41333;SDS011;27078;46.428;6.256;2024-01-16T03:40:10;1.90;;;0.80;;
41333;SDS011;27078;46.428;6.256;2024-01-16T03:42:37;1.30;;;0.63;;
41333;SDS011;27078;46.428;6.256;2024-01-16T03:45:03;1.77;;;0.70;;
41333;SDS011;27078;46.428;6.256;2024-01-16T03:47:28;1.98;;;0.85;;
41333;SDS011;27078;46.428;6.256;2024-01-16T03:49:53;1.42;;;0.80;;
41333;SDS011;27078;46.428;6.256;2024-01-16T03:52:19;1.67;;;0.80;;
41333;SDS011;27078;46.428;6.256;2024-01-16T03:54:44;2.25;;;0.60;;
41333;SDS011;27078;46.428;6.256;2024-01-16T03:57:09;1.73;;;0.82;;
41333;SDS011;27078;46.428;6.256;2024-01-16T03:59:36;2.33;;;0.82;;
41333;SDS011;27078;46.428;6.256;2024-01-16T04:02:02;1.73;;;0.80;;
41333;SDS011;27078;46.428;6.256;2024-01-16T04:04:28;2.17;;;0.77;;
41333;SDS011;27078;46.428;6.256;2024-01-16T04:06:53;1.85;;;0.70;;
41333;SDS011;27078;46.428;6.256;2024-01-16T04:09:19;1.90;;;0.80;;
41333;SDS011;27078;46.428;6.256;2024-01-16T04:11:44;2.00;;;0.70;;
41333;SDS011;27078;46.428;6.256;2024-01-16T04:14:09;1.60;;;0.80;;
41333;SDS011;27078;46.428;6.256;2024-01-16T04:16:35;1.60;;;0.88;;
41333;SDS011;27078;46.428;6.256;2024-01-16T04:19:00;2.33;;;0.90;;
41333;SDS011;27078;46.428;6.256;2024-01-16T04:21:26;1.63;;;0.73;;
41333;SDS011;27078;46.428;6.256;2024-01-16T04:23:51;1.65;;;0.77;;
41333;SDS011;27078;46.428;6.256;2024-01-16T04:26:17;1.92;;;0.90;;
41333;SDS011;27078;46.428;6.256;2024-01-16T04:28:42;1.90;;;0.88;;
41333;SDS011;27078;46.428;6.256;2024-01-16T04:31:08;1.55;;;0.70;;
41333;SDS011;27078;46.428;6.256;2024-01-16T04:33:34;1.35;;;0.70;;
41333;SDS011;27078;46.428;6.256;2024-01-16T04:35:59;2.53;;;0.90;;
41333;SDS011;27078;46.428;6.256;2024-01-16T04:38:25;1.35;;;0.70;;
41333;SDS011;27078;46.428;6.256;2024-01-16T04:40:50;1.25;;;0.60;;
41333;SDS011;27078;46.428;6.256;2024-01-16T04:43:16;1.70;;;0.70;;
41333;SDS011;27078;46.428;6.256;2024-01-16T04:45:41;1.40;;;0.70;;
41333;SDS011;27078;46.428;6.256;2024-01-16T04:48:06;2.03;;;0.73;;
41333;SDS011;27078;46.428;6.256;2024-01-16T04:50:33;2.22;;;1.00;;
41333;SDS011;27078;46.428;6.256;2024-01-16T04:52:59;1.42;;;0.73;;
41333;SDS011;27078;46.428;6.256;2024-01-16T04:55:25;1.42;;;0.75;;
41333;SDS011;27078;46.428;6.256;2024-01-16T04:57:52;1.45;;;0.70;;
41333;SDS011;27078;46.428;6.256;2024-01-16T05:00:17;2.35;;;0.60;;
41333;SDS011;27078;46.428;6.256;2024-01-16T05:02:43;2.22;;;0.80;;
41333;SDS011;27078;46.428;6.256;2024-01-16T05:05:08;2.08;;;0.73;;
41333;SDS011;27078;46.428;6.256;2024-01-16T05:07:33;1.60;;;0.70;;
41333;SDS011;27078;46.428;6.256;2024-01-16T05:10:00;1.55;;;0.70;;
41333;SDS011;27078;46.428;6.256;2024-01-16T05:12:26;1.60;;;0.70;;
41333;SDS011;27078;46.428;6.256;2024-01-16T05:14:51;1.20;;;0.68;;
41333;SDS011;27078;46.428;6.256;2024-01-16T05:17:16;1.85;;;0.70;;
41333;SDS011;27078;46.428;6.256;2024-01-16T05:19:42;2.13;;;0.80;;
41333;SDS011;27078;46.428;6.256;2024-01-16T05:22:07;2.00;;;1.00;;
41333;SDS011;27078;46.428;6.256;2024-01-16T05:24:32;2.97;;;0.80;;
41333;SDS011;27078;46.428;6.256;2024-01-16T05:26:58;1.48;;;0.80;;
41333;SDS011;27078;46.428;6.256;2024-01-16T05:29:23;1.40;;;0.75;;
41333;SDS011;27078;46.428;6.256;2024-01-16T05:31:49;1.52;;;0.80;;
41333;SDS011;27078;46.428;6.256;2024-01-16T05:34:14;1.67;;;0.80;;
41333;SDS011;27078;46.428;6.256;2024-01-16T05:36:40;1.67;;;0.70;;
41333;SDS011;27078;46.428;6.256;2024-01-16T05:39:06;1.67;;;0.88;;
41333;SDS011;27078;46.428;6.256;2024-01-16T05:41:33;1.55;;;0.80;;
41333;SDS011;27078;46.428;6.256;2024-01-16T05:43:59;2.95;;;1.10;;
41333;SDS011;27078;46.428;6.256;2024-01-16T05:46:25;2.08;;;1.00;;
41333;SDS011;27078;46.428;6.256;2024-01-16T05:48:51;1.45;;;0.70;;
41333;SDS011;27078;46.428;6.256;2024-01-16T05:51:16;2.35;;;0.90;;
41333;SDS011;27078;46.428;6.256;2024-01-16T05:53:41;1.55;;;0.90;;
41333;SDS011;27078;46.428;6.256;2024-01-16T05:56:07;1.60;;;0.88;;
41333;SDS011;27078;46.428;6.256;2024-01-16T05:58:33;2.50;;;1.00;;
41333;SDS011;27078;46.428;6.256;2024-01-16T06:01:03;2.30;;;1.10;;
41333;SDS011;27078;46.428;6.256;2024-01-16T06:03:29;1.92;;;1.00;;
41333;SDS011;27078;46.428;6.256;2024-01-16T06:05:54;2.03;;;0.88;;
41333;SDS011;27078;46.428;6.256;2024-01-16T06:08:20;2.13;;;1.20;;
41333;SDS011;27078;46.428;6.256;2024-01-16T06:10:45;2.50;;;1.30;;
41333;SDS011;27078;46.428;6.256;2024-01-16T06:13:10;2.75;;;1.40;;
41333;SDS011;27078;46.428;6.256;2024-01-16T06:15:37;2.50;;;1.27;;
41333;SDS011;27078;46.428;6.256;2024-01-16T06:18:02;2.53;;;1.33;;
41333;SDS011;27078;46.428;6.256;2024-01-16T06:20:28;3.65;;;1.60;;
41333;SDS011;27078;46.428;6.256;2024-01-16T06:22:54;3.13;;;1.58;;
41333;SDS011;27078;46.428;6.256;2024-01-16T06:25:19;3.55;;;1.88;;
41333;SDS011;27078;46.428;6.256;2024-01-16T06:27:45;2.85;;;1.48;;
41333;SDS011;27078;46.428;6.256;2024-01-16T06:30:10;3.03;;;1.40;;
41333;SDS011;27078;46.428;6.256;2024-01-16T06:32:36;2.90;;;1.42;;
41333;SDS011;27078;46.428;6.256;2024-01-16T06:35:01;2.85;;;1.55;;
41333;SDS011;27078;46.428;6.256;2024-01-16T06:37:27;2.95;;;1.45;;
41333;SDS011;27078;46.428;6.256;2024-01-16T06:39:53;2.85;;;1.35;;
41333;SDS011;27078;46.428;6.256;2024-01-16T06:42:18;2.00;;;1.10;;
41333;SDS011;27078;46.428;6.256;2024-01-16T06:44:44;2.53;;;1.20;;
41333;SDS011;27078;46.428;6.256;2024-01-16T06:47:10;1.50;;;0.95;;
41333;SDS011;27078;46.428;6.256;2024-01-16T06:49:35;2.92;;;1.40;;
41333;SDS011;27078;46.428;6.256;2024-01-16T06:52:00;3.17;;;1.17;;
41333;SDS011;27078;46.428;6.256;2024-01-16T06:54:26;2.28;;;1.08;;
41333;SDS011;27078;46.428;6.256;2024-01-16T06:56:51;1.85;;;1.13;;
41333;SDS011;27078;46.428;6.256;2024-01-16T06:59:16;1.88;;;1.02;;
41333;SDS011;27078;46.428;6.256;2024-01-16T07:01:44;3.05;;;1.35;;
41333;SDS011;27078;46.428;6.256;2024-01-16T07:04:09;2.53;;;1.25;;
41333;SDS011;27078;46.428;6.256;2024-01-16T07:06:35;2.10;;;1.20;;
41333;SDS011;27078;46.428;6.256;2024-01-16T07:09:00;2.53;;;1.30;;
41333;SDS011;27078;46.428;6.256;2024-01-16T07:11:25;3.63;;;1.27;;
41333;SDS011;27078;46.428;6.256;2024-01-16T07:13:51;2.35;;;1.40;;
41333;SDS011;27078;46.428;6.256;2024-01-16T07:16:16;2.60;;;1.30;;
41333;SDS011;27078;46.428;6.256;2024-01-16T07:18:41;2.60;;;1.50;;
41333;SDS011;27078;46.428;6.256;2024-01-16T07:21:16;2.58;;;1.40;;
41333;SDS011;27078;46.428;6.256;2024-01-16T07:23:42;2.75;;;1.52;;
41333;SDS011;27078;46.428;6.256;2024-01-16T07:26:08;2.75;;;1.40;;
41333;SDS011;27078;46.428;6.256;2024-01-16T07:28:33;2.88;;;1.40;;
41333;SDS011;27078;46.428;6.256;2024-01-16T07:30:58;3.00;;;1.73;;
41333;SDS011;27078;46.428;6.256;2024-01-16T07:33:24;5.13;;;2.10;;
41333;SDS011;27078;46.428;6.256;2024-01-16T07:35:49;3.75;;;1.40;;
41333;SDS011;27078;46.428;6.256;2024-01-16T07:38:14;3.47;;;1.83;;
41333;SDS011;27078;46.428;6.256;2024-01-16T07:40:40;4.18;;;1.88;;
41333;SDS011;27078;46.428;6.256;2024-01-16T07:43:05;2.90;;;1.33;;
41333;SDS011;27078;46.428;6.256;2024-01-16T07:45:30;3.45;;;1.45;;
41333;SDS011;27078;46.428;6.256;2024-01-16T07:47:56;2.92;;;1.40;;
41333;SDS011;27078;46.428;6.256;2024-01-16T07:50:21;3.60;;;1.80;;
41333;SDS011;27078;46.428;6.256;2024-01-16T07:52:46;4.38;;;2.45;;
41333;SDS011;27078;46.428;6.256;2024-01-16T07:55:12;6.50;;;2.50;;
41333;SDS011;27078;46.428;6.256;2024-01-16T07:57:37;3.83;;;1.95;;
41333;SDS011;27078;46.428;6.256;2024-01-16T08:00:03;5.43;;;2.17;;
41333;SDS011;27078;46.428;6.256;2024-01-16T08:02:32;6.13;;;2.60;;
41333;SDS011;27078;46.428;6.256;2024-01-16T08:04:59;5.25;;;2.92;;
41333;SDS011;27078;46.428;6.256;2024-01-16T08:07:24;5.05;;;3.00;;
41333;SDS011;27078;46.428;6.256;2024-01-16T08:09:49;3.92;;;2.10;;
41333;SDS011;27078;46.428;6.256;2024-01-16T08:12:15;3.72;;;2.08;;
41333;SDS011;27078;46.428;6.256;2024-01-16T08:14:40;3.35;;;1.70;;
41333;SDS011;27078;46.428;6.256;2024-01-16T08:17:06;3.83;;;1.80;;
41333;SDS011;27078;46.428;6.256;2024-01-16T08:19:31;2.90;;;1.60;;
41333;SDS011;27078;46.428;6.256;2024-01-16T08:21:57;3.65;;;1.67;;
41333;SDS011;27078;46.428;6.256;2024-01-16T08:24:23;3.58;;;1.60;;
41333;SDS011;27078;46.428;6.256;2024-01-16T08:26:49;4.47;;;1.75;;
41333;SDS011;27078;46.428;6.256;2024-01-16T08:29:14;4.15;;;1.80;;
41333;SDS011;27078;46.428;6.256;2024-01-16T08:31:40;4.72;;;2.25;;
41333;SDS011;27078;46.428;6.256;2024-01-16T08:34:05;5.75;;;2.58;;
41333;SDS011;27078;46.428;6.256;2024-01-16T08:36:31;3.90;;;1.88;;
41333;SDS011;27078;46.428;6.256;2024-01-16T08:38:56;4.97;;;2.10;;
41333;SDS011;27078;46.428;6.256;2024-01-16T08:41:21;4.07;;;2.20;;
41333;SDS011;27078;46.428;6.256;2024-01-16T08:43:47;3.60;;;1.90;;
41333;SDS011;27078;46.428;6.256;2024-01-16T08:46:13;3.85;;;2.10;;
41333;SDS011;27078;46.428;6.256;2024-01-16T08:48:38;4.43;;;2.22;;
41333;SDS011;27078;46.428;6.256;2024-01-16T08:51:06;4.40;;;2.20;;
41333;SDS011;27078;46.428;6.256;2024-01-16T08:53:33;4.38;;;2.40;;
41333;SDS011;27078;46.428;6.256;2024-01-16T08:55:59;7.75;;;3.90;;
41333;SDS011;27078;46.428;6.256;2024-01-16T08:58:25;7.80;;;4.18;;
41333;SDS011;27078;46.428;6.256;2024-01-16T09:00:50;14.73;;;6.35;;
41333;SDS011;27078;46.428;6.256;2024-01-16T09:03:15;16.85;;;7.95;;
41333;SDS011;27078;46.428;6.256;2024-01-16T09:05:42;15.80;;;8.10;;
41333;SDS011;27078;46.428;6.256;2024-01-16T09:08:08;10.32;;;4.80;;
41333;SDS011;27078;46.428;6.256;2024-01-16T09:10:33;7.43;;;3.70;;
41333;SDS011;27078;46.428;6.256;2024-01-16T09:12:59;6.18;;;3.17;;
41333;SDS011;27078;46.428;6.256;2024-01-16T09:15:24;5.47;;;3.00;;
41333;SDS011;27078;46.428;6.256;2024-01-16T09:17:50;4.93;;;2.90;;
41333;SDS011;27078;46.428;6.256;2024-01-16T09:20:15;6.75;;;3.15;;
41333;SDS011;27078;46.428;6.256;2024-01-16T09:22:40;6.75;;;3.25;;
41333;SDS011;27078;46.428;6.256;2024-01-16T09:25:06;4.90;;;3.03;;
41333;SDS011;27078;46.428;6.256;2024-01-16T09:27:32;5.95;;;3.35;;
41333;SDS011;27078;46.428;6.256;2024-01-16T09:29:57;5.43;;;3.58;;
41333;SDS011;27078;46.428;6.256;2024-01-16T09:32:22;5.45;;;3.08;;
41333;SDS011;27078;46.428;6.256;2024-01-16T09:34:48;6.05;;;3.22;;
41333;SDS011;27078;46.428;6.256;2024-01-16T09:37:13;6.03;;;3.45;;
41333;SDS011;27078;46.428;6.256;2024-01-16T09:39:40;7.65;;;3.78;;
41333;SDS011;27078;46.428;6.256;2024-01-16T09:42:06;6.75;;;3.90;;
41333;SDS011;27078;46.428;6.256;2024-01-16T09:44:32;6.88;;;3.72;;
41333;SDS011;27078;46.428;6.256;2024-01-16T09:46:59;6.78;;;3.78;;
41333;SDS011;27078;46.428;6.256;2024-01-16T09:49:27;6.03;;;3.90;;
41333;SDS011;27078;46.428;6.256;2024-01-16T09:51:52;7.10;;;3.75;;
41333;SDS011;27078;46.428;6.256;2024-01-16T09:54:18;6.13;;;3.47;;
41333;SDS011;27078;46.428;6.256;2024-01-16T09:56:43;6.38;;;3.60;;
41333;SDS011;27078;46.428;6.256;2024-01-16T09:59:10;7.57;;;3.70;;
41333;SDS011;27078;46.428;6.256;2024-01-16T10:01:39;7.68;;;3.75;;
41333;SDS011;27078;46.428;6.256;2024-01-16T10:04:06;6.75;;;3.92;;
41333;SDS011;27078;46.428;6.256;2024-01-16T10:06:31;6.70;;;3.72;;
41333;SDS011;27078;46.428;6.256;2024-01-16T10:08:59;7.40;;;3.63;;
41333;SDS011;27078;46.428;6.256;2024-01-16T10:11:24;6.50;;;3.75;;
41333;SDS011;27078;46.428;6.256;2024-01-16T10:13:49;7.38;;;3.80;;
41333;SDS011;27078;46.428;6.256;2024-01-16T10:16:15;6.35;;;4.13;;
41333;SDS011;27078;46.428;6.256;2024-01-16T10:18:40;7.35;;;4.22;;
41333;SDS011;27078;46.428;6.256;2024-01-16T10:21:07;6.80;;;3.72;;
41333;SDS011;27078;46.428;6.256;2024-01-16T10:23:46;7.00;;;4.13;;
41333;SDS011;27078;46.428;6.256;2024-01-16T10:26:11;8.60;;;4.40;;
41333;SDS011;27078;46.428;6.256;2024-01-16T10:28:40;6.90;;;4.22;;
41333;SDS011;27078;46.428;6.256;2024-01-16T10:31:08;7.78;;;4.25;;
41333;SDS011;27078;46.428;6.256;2024-01-16T10:33:33;8.55;;;4.55;;
41333;SDS011;27078;46.428;6.256;2024-01-16T10:36:15;8.18;;;4.43;;
41333;SDS011;27078;46.428;6.256;2024-01-16T10:38:43;8.88;;;4.28;;
41333;SDS011;27078;46.428;6.256;2024-01-16T10:43:36;8.60;;;4.57;;
41333;SDS011;27078;46.428;6.256;2024-01-16T10:48:41;7.32;;;4.38;;
41333;SDS011;27078;46.428;6.256;2024-01-16T10:51:14;7.57;;;4.70;;
41333;SDS011;27078;46.428;6.256;2024-01-16T10:53:43;7.80;;;4.65;;
41333;SDS011;27078;46.428;6.256;2024-01-16T10:56:10;8.35;;;4.65;;
41333;SDS011;27078;46.428;6.256;2024-01-16T10:58:40;8.85;;;4.90;;
41333;SDS011;27078;46.428;6.256;2024-01-16T11:01:09;10.48;;;4.72;;
41333;SDS011;27078;46.428;6.256;2024-01-16T11:03:48;8.52;;;4.80;;
41333;SDS011;27078;46.428;6.256;2024-01-16T11:06:16;9.85;;;5.45;;
41333;SDS011;27078;46.428;6.256;2024-01-16T11:08:42;10.10;;;5.18;;
41333;SDS011;27078;46.428;6.256;2024-01-16T11:11:10;7.82;;;4.53;;
41333;SDS011;27078;46.428;6.256;2024-01-16T11:13:36;7.60;;;4.60;;
41333;SDS011;27078;46.428;6.256;2024-01-16T11:16:03;8.13;;;4.88;;
41333;SDS011;27078;46.428;6.256;2024-01-16T11:18:30;8.40;;;4.88;;
41333;SDS011;27078;46.428;6.256;2024-01-16T11:20:57;6.55;;;4.05;;
41333;SDS011;27078;46.428;6.256;2024-01-16T11:23:23;7.70;;;4.22;;
41333;SDS011;27078;46.428;6.256;2024-01-16T11:25:49;6.25;;;4.00;;
41333;SDS011;27078;46.428;6.256;2024-01-16T11:28:14;7.05;;;4.00;;
41333;SDS011;27078;46.428;6.256;2024-01-16T11:30:41;6.25;;;3.55;;
41333;SDS011;27078;46.428;6.256;2024-01-16T11:35:57;7.55;;;4.70;;
41333;SDS011;27078;46.428;6.256;2024-01-16T11:38:23;7.65;;;4.05;;
41333;SDS011;27078;46.428;6.256;2024-01-16T11:40:51;6.80;;;4.15;;
41333;SDS011;27078;46.428;6.256;2024-01-16T11:45:58;6.13;;;3.65;;
41333;SDS011;27078;46.428;6.256;2024-01-16T11:48:24;5.78;;;3.63;;
41333;SDS011;27078;46.428;6.256;2024-01-16T11:50:50;8.13;;;3.97;;
41333;SDS011;27078;46.428;6.256;2024-01-16T11:53:34;6.57;;;3.65;;
41333;SDS011;27078;46.428;6.256;2024-01-16T11:59:05;7.35;;;3.70;;
41333;SDS011;27078;46.428;6.256;2024-01-16T12:01:44;6.32;;;3.70;;
41333;SDS011;27078;46.428;6.256;2024-01-16T12:04:10;6.50;;;4.25;;
41333;SDS011;27078;46.428;6.256;2024-01-16T12:06:36;5.97;;;3.97;;
41333;SDS011;27078;46.428;6.256;2024-01-16T12:09:14;6.72;;;4.40;;
41333;SDS011;27078;46.428;6.256;2024-01-16T12:11:40;6.90;;;4.25;;
41333;SDS011;27078;46.428;6.256;2024-01-16T12:14:09;7.20;;;4.80;;
41333;SDS011;27078;46.428;6.256;2024-01-16T12:16:35;7.28;;;4.50;;
41333;SDS011;27078;46.428;6.256;2024-01-16T12:19:08;8.10;;;4.90;;
41333;SDS011;27078;46.428;6.256;2024-01-16T12:21:34;8.50;;;5.07;;
41333;SDS011;27078;46.428;6.256;2024-01-16T12:24:06;6.32;;;4.25;;
41333;SDS011;27078;46.428;6.256;2024-01-16T12:26:32;7.40;;;4.50;;
41333;SDS011;27078;46.428;6.256;2024-01-16T12:28:57;8.73;;;5.53;;
41333;SDS011;27078;46.428;6.256;2024-01-16T12:31:23;6.63;;;4.78;;
41333;SDS011;27078;46.428;6.256;2024-01-16T12:33:50;8.43;;;5.05;;
41333;SDS011;27078;46.428;6.256;2024-01-16T12:36:16;8.45;;;5.68;;
41333;SDS011;27078;46.428;6.256;2024-01-16T12:38:42;8.07;;;5.00;;
41333;SDS011;27078;46.428;6.256;2024-01-16T12:41:08;9.40;;;5.28;;
41333;SDS011;27078;46.428;6.256;2024-01-16T12:43:35;8.35;;;5.72;;
41333;SDS011;27078;46.428;6.256;2024-01-16T12:46:02;8.43;;;5.72;;
41333;SDS011;27078;46.428;6.256;2024-01-16T12:48:27;9.05;;;5.68;;
41333;SDS011;27078;46.428;6.256;2024-01-16T12:50:59;10.75;;;5.68;;
41333;SDS011;27078;46.428;6.256;2024-01-16T12:53:29;8.32;;;5.75;;
41333;SDS011;27078;46.428;6.256;2024-01-16T12:56:00;8.52;;;5.70;;
41333;SDS011;27078;46.428;6.256;2024-01-16T12:58:34;8.88;;;6.07;;
41333;SDS011;27078;46.428;6.256;2024-01-16T13:03:50;8.43;;;5.50;;
41333;SDS011;27078;46.428;6.256;2024-01-16T13:06:22;8.93;;;5.55;;
41333;SDS011;27078;46.428;6.256;2024-01-16T13:08:51;7.05;;;5.35;;
41333;SDS011;27078;46.428;6.256;2024-01-16T13:11:49;7.03;;;4.53;;
41333;SDS011;27078;46.428;6.256;2024-01-16T13:14:16;7.82;;;4.88;;
41333;SDS011;27078;46.428;6.256;2024-01-16T13:16:42;8.75;;;5.22;;
41333;SDS011;27078;46.428;6.256;2024-01-16T13:19:07;9.05;;;5.00;;
41333;SDS011;27078;46.428;6.256;2024-01-16T13:21:36;8.35;;;5.28;;
41333;SDS011;27078;46.428;6.256;2024-01-16T13:24:04;8.45;;;5.47;;
41333;SDS011;27078;46.428;6.256;2024-01-16T13:26:30;7.60;;;5.10;;
41333;SDS011;27078;46.428;6.256;2024-01-16T13:28:57;8.95;;;5.18;;
41333;SDS011;27078;46.428;6.256;2024-01-16T13:31:22;8.63;;;5.63;;
41333;SDS011;27078;46.428;6.256;2024-01-16T13:33:47;9.00;;;5.20;;
41333;SDS011;27078;46.428;6.256;2024-01-16T13:36:13;8.68;;;5.50;;
41333;SDS011;27078;46.428;6.256;2024-01-16T13:38:38;10.30;;;5.35;;
41333;SDS011;27078;46.428;6.256;2024-01-16T13:41:03;8.40;;;4.93;;
41333;SDS011;27078;46.428;6.256;2024-01-16T13:43:29;7.57;;;4.68;;
41333;SDS011;27078;46.428;6.256;2024-01-16T13:45:54;8.13;;;5.18;;
41333;SDS011;27078;46.428;6.256;2024-01-16T13:48:20;9.13;;;4.70;;
41333;SDS011;27078;46.428;6.256;2024-01-16T13:50:46;9.35;;;4.97;;
41333;SDS011;27078;46.428;6.256;2024-01-16T13:53:11;8.55;;;5.22;;
41333;SDS011;27078;46.428;6.256;2024-01-16T13:55:40;11.68;;;5.22;;
41333;SDS011;27078;46.428;6.256;2024-01-16T13:58:06;6.95;;;4.90;;
41333;SDS011;27078;46.428;6.256;2024-01-16T14:00:32;9.52;;;4.80;;
41333;SDS011;27078;46.428;6.256;2024-01-16T14:02:57;7.13;;;4.75;;
41333;SDS011;27078;46.428;6.256;2024-01-16T14:05:22;7.72;;;4.55;;
41333;SDS011;27078;46.428;6.256;2024-01-16T14:07:49;8.18;;;5.03;;
41333;SDS011;27078;46.428;6.256;2024-01-16T14:10:16;7.72;;;4.70;;
41333;SDS011;27078;46.428;6.256;2024-01-16T14:12:43;8.50;;;4.78;;
41333;SDS011;27078;46.428;6.256;2024-01-16T14:15:12;6.45;;;4.30;;
41333;SDS011;27078;46.428;6.256;2024-01-16T14:17:48;7.68;;;4.53;;
41333;SDS011;27078;46.428;6.256;2024-01-16T14:20:14;7.95;;;4.60;;
41333;SDS011;27078;46.428;6.256;2024-01-16T14:22:41;8.10;;;4.72;;
41333;SDS011;27078;46.428;6.256;2024-01-16T14:25:07;7.32;;;4.70;;
41333;SDS011;27078;46.428;6.256;2024-01-16T14:27:39;8.38;;;4.43;;
41333;SDS011;27078;46.428;6.256;2024-01-16T14:33:23;9.95;;;5.10;;
41333;SDS011;27078;46.428;6.256;2024-01-16T14:35:49;8.73;;;5.00;;
41333;SDS011;27078;46.428;6.256;2024-01-16T14:38:14;7.30;;;4.80;;
41333;SDS011;27078;46.428;6.256;2024-01-16T14:40:39;7.40;;;4.85;;
41333;SDS011;27078;46.428;6.256;2024-01-16T14:43:05;9.30;;;5.05;;
41333;SDS011;27078;46.428;6.256;2024-01-16T14:45:31;7.72;;;5.00;;
41333;SDS011;27078;46.428;6.256;2024-01-16T14:47:56;9.05;;;4.63;;
41333;SDS011;27078;46.428;6.256;2024-01-16T14:50:22;7.85;;;4.63;;
41333;SDS011;27078;46.428;6.256;2024-01-16T14:52:49;7.35;;;4.38;;
41333;SDS011;27078;46.428;6.256;2024-01-16T14:55:15;7.47;;;4.40;;
41333;SDS011;27078;46.428;6.256;2024-01-16T14:57:40;8.75;;;4.90;;
41333;SDS011;27078;46.428;6.256;2024-01-16T15:00:16;7.70;;;4.60;;
41333;SDS011;27078;46.428;6.256;2024-01-16T15:02:45;6.90;;;4.35;;
41333;SDS011;27078;46.428;6.256;2024-01-16T15:05:13;7.00;;;4.13;;